sensor_id;sensor_type;location;lat;lon;timestamp;P1;durP1;ratioP1;P2;durP2;ratioP2
18176;SDS011;9213;50.858;3.964;2023-02-11T00:00:42;22.33;;;10.37;;
18176;SDS011;9213;50.858;3.964;2023-02-11T00:03:09;18.47;;;10.43;;
18176;SDS011;9213;50.858;3.964;2023-02-11T00:05:36;19.83;;;10.80;;
18176;SDS011;9213;50.858;3.964;2023-02-11T00:08:03;22.20;;;10.27;;
18176;SDS011;9213;50.858;3.964;2023-02-11T00:10:30;23.73;;;10.73;;
18176;SDS011;9213;50.858;3.964;2023-02-11T00:12:58;26.80;;;10.83;;
18176;SDS011;9213;50.858;3.964;2023-02-11T00:15:25;18.97;;;10.13;;
18176;SDS011;9213;50.858;3.964;2023-02-11T00:17:52;18.53;;;9.73;;
18176;SDS011;9213;50.858;3.964;2023-02-11T00:20:19;25.97;;;10.10;;
18176;SDS011;9213;50.858;3.964;2023-02-11T00:22:46;27.47;;;9.80;;
18176;SDS011;9213;50.858;3.964;2023-02-11T00:25:13;18.63;;;10.20;;
18176;SDS011;9213;50.858;3.964;2023-02-11T00:27:40;23.90;;;10.03;;
18176;SDS011;9213;50.858;3.964;2023-02-11T00:30:09;19.27;;;9.73;;
18176;SDS011;9213;50.858;3.964;2023-02-11T00:32:36;25.47;;;10.77;;
18176;SDS011;9213;50.858;3.964;2023-02-11T00:35:03;25.83;;;10.83;;
18176;SDS011;9213;50.858;3.964;2023-02-11T00:37:30;21.27;;;11.03;;
18176;SDS011;9213;50.858;3.964;2023-02-11T00:40:00;22.47;;;11.13;;
18176;SDS011;9213;50.858;3.964;2023-02-11T00:42:27;27.37;;;11.10;;
18176;SDS011;9213;50.858;3.964;2023-02-11T00:44:54;27.63;;;12.83;;
18176;SDS011;9213;50.858;3.964;2023-02-11T00:47:22;27.00;;;12.07;;
18176;SDS011;9213;50.858;3.964;2023-02-11T00:49:49;25.70;;;12.00;;
18176;SDS011;9213;50.858;3.964;2023-02-11T00:52:16;27.23;;;12.37;;
18176;SDS011;9213;50.858;3.964;2023-02-11T00:54:43;27.00;;;12.23;;
18176;SDS011;9213;50.858;3.964;2023-02-11T00:57:10;27.93;;;11.63;;
18176;SDS011;9213;50.858;3.964;2023-02-11T00:59:37;28.30;;;12.33;;
18176;SDS011;9213;50.858;3.964;2023-02-11T01:02:04;27.03;;;11.57;;
18176;SDS011;9213;50.858;3.964;2023-02-11T01:04:32;28.50;;;11.63;;
18176;SDS011;9213;50.858;3.964;2023-02-11T01:06:59;27.97;;;12.13;;
18176;SDS011;9213;50.858;3.964;2023-02-11T01:09:26;26.07;;;11.33;;
18176;SDS011;9213;50.858;3.964;2023-02-11T01:11:55;37.90;;;12.37;;
18176;SDS011;9213;50.858;3.964;2023-02-11T01:14:27;23.90;;;12.20;;
18176;SDS011;9213;50.858;3.964;2023-02-11T01:16:54;29.20;;;11.57;;
18176;SDS011;9213;50.858;3.964;2023-02-11T01:19:21;25.53;;;11.03;;
18176;SDS011;9213;50.858;3.964;2023-02-11T01:21:49;28.17;;;11.67;;
18176;SDS011;9213;50.858;3.964;2023-02-11T01:24:16;26.17;;;11.60;;
18176;SDS011;9213;50.858;3.964;2023-02-11T01:26:43;25.83;;;11.47;;
18176;SDS011;9213;50.858;3.964;2023-02-11T01:29:10;24.30;;;11.73;;
18176;SDS011;9213;50.858;3.964;2023-02-11T01:31:37;31.60;;;11.67;;
18176;SDS011;9213;50.858;3.964;2023-02-11T01:34:03;27.40;;;12.00;;
18176;SDS011;9213;50.858;3.964;2023-02-11T01:36:30;27.33;;;12.07;;
18176;SDS011;9213;50.858;3.964;2023-02-11T01:38:59;28.27;;;11.40;;
18176;SDS011;9213;50.858;3.964;2023-02-11T01:41:26;26.57;;;11.03;;
18176;SDS011;9213;50.858;3.964;2023-02-11T01:43:52;25.27;;;11.30;;
18176;SDS011;9213;50.858;3.964;2023-02-11T01:46:22;26.00;;;11.57;;
18176;SDS011;9213;50.858;3.964;2023-02-11T01:48:56;32.00;;;11.43;;
18176;SDS011;9213;50.858;3.964;2023-02-11T01:51:27;25.73;;;11.53;;
18176;SDS011;9213;50.858;3.964;2023-02-11T01:53:59;22.70;;;11.57;;
18176;SDS011;9213;50.858;3.964;2023-02-11T01:56:46;22.67;;;10.23;;
18176;SDS011;9213;50.858;3.964;2023-02-11T01:59:37;30.73;;;11.20;;
18176;SDS011;9213;50.858;3.964;2023-02-11T02:02:07;22.73;;;10.57;;
18176;SDS011;9213;50.858;3.964;2023-02-11T02:04:37;21.17;;;10.53;;
18176;SDS011;9213;50.858;3.964;2023-02-11T02:07:13;26.60;;;10.23;;
18176;SDS011;9213;50.858;3.964;2023-02-11T02:09:51;23.37;;;10.53;;
18176;SDS011;9213;50.858;3.964;2023-02-11T02:12:21;28.33;;;10.67;;
18176;SDS011;9213;50.858;3.964;2023-02-11T02:14:48;24.50;;;10.97;;
18176;SDS011;9213;50.858;3.964;2023-02-11T02:17:17;24.10;;;10.40;;
18176;SDS011;9213;50.858;3.964;2023-02-11T02:19:58;29.23;;;11.27;;
18176;SDS011;9213;50.858;3.964;2023-02-11T02:22:44;22.83;;;9.80;;
18176;SDS011;9213;50.858;3.964;2023-02-11T02:25:41;24.30;;;10.17;;
18176;SDS011;9213;50.858;3.964;2023-02-11T02:28:35;24.47;;;10.60;;
18176;SDS011;9213;50.858;3.964;2023-02-11T02:31:39;26.90;;;9.93;;
18176;SDS011;9213;50.858;3.964;2023-02-11T02:34:25;28.93;;;9.77;;
18176;SDS011;9213;50.858;3.964;2023-02-11T02:36:59;20.20;;;9.67;;
18176;SDS011;9213;50.858;3.964;2023-02-11T02:39:33;26.87;;;10.57;;
18176;SDS011;9213;50.858;3.964;2023-02-11T02:42:02;24.27;;;10.37;;
18176;SDS011;9213;50.858;3.964;2023-02-11T02:44:29;18.37;;;9.97;;
18176;SDS011;9213;50.858;3.964;2023-02-11T02:46:57;24.60;;;10.13;;
18176;SDS011;9213;50.858;3.964;2023-02-11T02:49:25;25.83;;;10.30;;
18176;SDS011;9213;50.858;3.964;2023-02-11T02:54:51;20.37;;;10.63;;
18176;SDS011;9213;50.858;3.964;2023-02-11T02:57:36;19.13;;;9.97;;
18176;SDS011;9213;50.858;3.964;2023-02-11T03:00:12;16.77;;;9.97;;
18176;SDS011;9213;50.858;3.964;2023-02-11T03:02:48;24.87;;;11.10;;
18176;SDS011;9213;50.858;3.964;2023-02-11T03:05:22;21.20;;;10.83;;
18176;SDS011;9213;50.858;3.964;2023-02-11T03:07:57;23.90;;;10.97;;
18176;SDS011;9213;50.858;3.964;2023-02-11T03:10:29;21.53;;;10.40;;
18176;SDS011;9213;50.858;3.964;2023-02-11T03:12:58;25.10;;;10.50;;
18176;SDS011;9213;50.858;3.964;2023-02-11T03:15:27;22.70;;;10.57;;
18176;SDS011;9213;50.858;3.964;2023-02-11T03:17:57;27.77;;;11.20;;
18176;SDS011;9213;50.858;3.964;2023-02-11T03:20:28;26.10;;;10.87;;
18176;SDS011;9213;50.858;3.964;2023-02-11T03:22:59;21.03;;;10.53;;
18176;SDS011;9213;50.858;3.964;2023-02-11T03:25:29;24.17;;;11.50;;
18176;SDS011;9213;50.858;3.964;2023-02-11T03:28:04;19.50;;;10.97;;
18176;SDS011;9213;50.858;3.964;2023-02-11T03:30:39;23.67;;;11.83;;
18176;SDS011;9213;50.858;3.964;2023-02-11T03:33:11;33.00;;;11.27;;
18176;SDS011;9213;50.858;3.964;2023-02-11T03:35:46;26.13;;;11.73;;
18176;SDS011;9213;50.858;3.964;2023-02-11T03:38:19;24.10;;;11.43;;
18176;SDS011;9213;50.858;3.964;2023-02-11T03:40:50;29.27;;;11.63;;
18176;SDS011;9213;50.858;3.964;2023-02-11T03:43:21;21.33;;;10.93;;
18176;SDS011;9213;50.858;3.964;2023-02-11T03:45:52;27.00;;;11.53;;
18176;SDS011;9213;50.858;3.964;2023-02-11T03:48:21;29.53;;;11.30;;
18176;SDS011;9213;50.858;3.964;2023-02-11T03:50:52;28.63;;;12.70;;
18176;SDS011;9213;50.858;3.964;2023-02-11T03:53:21;28.00;;;11.77;;
18176;SDS011;9213;50.858;3.964;2023-02-11T03:55:48;26.07;;;11.90;;
18176;SDS011;9213;50.858;3.964;2023-02-11T03:58:17;27.73;;;11.77;;
18176;SDS011;9213;50.858;3.964;2023-02-11T04:00:44;31.20;;;12.40;;
18176;SDS011;9213;50.858;3.964;2023-02-11T04:03:11;26.80;;;12.07;;
18176;SDS011;9213;50.858;3.964;2023-02-11T04:05:38;24.07;;;11.87;;
18176;SDS011;9213;50.858;3.964;2023-02-11T04:08:07;22.93;;;11.13;;
18176;SDS011;9213;50.858;3.964;2023-02-11T04:10:34;28.57;;;11.00;;
18176;SDS011;9213;50.858;3.964;2023-02-11T04:13:01;24.17;;;12.13;;
18176;SDS011;9213;50.858;3.964;2023-02-11T04:15:28;24.73;;;11.53;;
18176;SDS011;9213;50.858;3.964;2023-02-11T04:17:55;26.30;;;11.47;;
18176;SDS011;9213;50.858;3.964;2023-02-11T04:20:22;26.97;;;11.20;;
18176;SDS011;9213;50.858;3.964;2023-02-11T04:22:49;25.23;;;11.47;;
18176;SDS011;9213;50.858;3.964;2023-02-11T04:25:17;25.70;;;11.67;;
18176;SDS011;9213;50.858;3.964;2023-02-11T04:27:44;25.70;;;11.17;;
18176;SDS011;9213;50.858;3.964;2023-02-11T04:30:11;24.43;;;12.00;;
18176;SDS011;9213;50.858;3.964;2023-02-11T04:32:39;26.33;;;13.10;;
18176;SDS011;9213;50.858;3.964;2023-02-11T04:35:06;23.07;;;11.07;;
18176;SDS011;9213;50.858;3.964;2023-02-11T04:37:33;27.70;;;11.90;;
18176;SDS011;9213;50.858;3.964;2023-02-11T04:40:00;25.93;;;11.40;;
18176;SDS011;9213;50.858;3.964;2023-02-11T04:42:29;26.57;;;11.97;;
18176;SDS011;9213;50.858;3.964;2023-02-11T04:44:56;31.87;;;12.30;;
18176;SDS011;9213;50.858;3.964;2023-02-11T04:47:23;30.10;;;12.30;;
18176;SDS011;9213;50.858;3.964;2023-02-11T04:49:50;24.03;;;12.13;;
18176;SDS011;9213;50.858;3.964;2023-02-11T04:52:17;24.53;;;12.13;;
18176;SDS011;9213;50.858;3.964;2023-02-11T04:54:43;25.30;;;12.33;;
18176;SDS011;9213;50.858;3.964;2023-02-11T04:57:10;34.20;;;12.20;;
18176;SDS011;9213;50.858;3.964;2023-02-11T04:59:39;27.83;;;13.00;;
18176;SDS011;9213;50.858;3.964;2023-02-11T05:02:06;35.73;;;13.63;;
18176;SDS011;9213;50.858;3.964;2023-02-11T05:04:33;33.77;;;12.77;;
18176;SDS011;9213;50.858;3.964;2023-02-11T05:07:00;27.40;;;13.17;;
18176;SDS011;9213;50.858;3.964;2023-02-11T05:09:27;30.90;;;12.60;;
18176;SDS011;9213;50.858;3.964;2023-02-11T05:11:54;32.90;;;12.67;;
18176;SDS011;9213;50.858;3.964;2023-02-11T05:14:20;31.73;;;13.30;;
18176;SDS011;9213;50.858;3.964;2023-02-11T05:16:49;26.67;;;12.57;;
18176;SDS011;9213;50.858;3.964;2023-02-11T05:19:16;31.53;;;13.17;;
18176;SDS011;9213;50.858;3.964;2023-02-11T05:21:42;28.47;;;13.33;;
18176;SDS011;9213;50.858;3.964;2023-02-11T05:24:09;30.27;;;12.97;;
18176;SDS011;9213;50.858;3.964;2023-02-11T05:26:36;32.67;;;14.63;;
18176;SDS011;9213;50.858;3.964;2023-02-11T05:29:03;29.23;;;14.00;;
18176;SDS011;9213;50.858;3.964;2023-02-11T05:31:30;31.57;;;13.83;;
18176;SDS011;9213;50.858;3.964;2023-02-11T05:33:59;31.03;;;14.03;;
18176;SDS011;9213;50.858;3.964;2023-02-11T05:36:28;31.03;;;13.63;;
18176;SDS011;9213;50.858;3.964;2023-02-11T05:38:55;31.70;;;14.27;;
18176;SDS011;9213;50.858;3.964;2023-02-11T05:41:22;30.80;;;14.67;;
18176;SDS011;9213;50.858;3.964;2023-02-11T05:43:49;32.50;;;14.73;;
18176;SDS011;9213;50.858;3.964;2023-02-11T05:46:16;29.67;;;15.17;;
18176;SDS011;9213;50.858;3.964;2023-02-11T05:48:43;37.03;;;16.07;;
18176;SDS011;9213;50.858;3.964;2023-02-11T05:51:12;31.70;;;16.00;;
18176;SDS011;9213;50.858;3.964;2023-02-11T05:53:39;32.67;;;15.13;;
18176;SDS011;9213;50.858;3.964;2023-02-11T05:56:06;36.37;;;16.60;;
18176;SDS011;9213;50.858;3.964;2023-02-11T05:58:34;30.80;;;16.33;;
18176;SDS011;9213;50.858;3.964;2023-02-11T06:01:02;38.53;;;16.17;;
18176;SDS011;9213;50.858;3.964;2023-02-11T06:03:29;30.47;;;15.77;;
18176;SDS011;9213;50.858;3.964;2023-02-11T06:05:56;35.20;;;16.23;;
18176;SDS011;9213;50.858;3.964;2023-02-11T06:08:25;34.50;;;16.13;;
18176;SDS011;9213;50.858;3.964;2023-02-11T06:10:51;35.03;;;16.67;;
18176;SDS011;9213;50.858;3.964;2023-02-11T06:13:18;31.60;;;16.67;;
18176;SDS011;9213;50.858;3.964;2023-02-11T06:15:54;40.23;;;16.50;;
18176;SDS011;9213;50.858;3.964;2023-02-11T06:18:21;35.83;;;16.83;;
18176;SDS011;9213;50.858;3.964;2023-02-11T06:20:48;39.63;;;16.73;;
18176;SDS011;9213;50.858;3.964;2023-02-11T06:23:15;39.40;;;17.53;;
18176;SDS011;9213;50.858;3.964;2023-02-11T06:25:43;36.03;;;17.10;;
18176;SDS011;9213;50.858;3.964;2023-02-11T06:28:10;38.00;;;17.67;;
18176;SDS011;9213;50.858;3.964;2023-02-11T06:30:37;37.97;;;18.40;;
18176;SDS011;9213;50.858;3.964;2023-02-11T06:33:04;37.80;;;18.10;;
18176;SDS011;9213;50.858;3.964;2023-02-11T06:35:31;31.70;;;18.10;;
18176;SDS011;9213;50.858;3.964;2023-02-11T06:37:59;38.83;;;18.50;;
18176;SDS011;9213;50.858;3.964;2023-02-11T06:40:26;45.70;;;20.77;;
18176;SDS011;9213;50.858;3.964;2023-02-11T06:42:54;41.93;;;20.20;;
18176;SDS011;9213;50.858;3.964;2023-02-11T06:45:21;45.83;;;20.20;;
18176;SDS011;9213;50.858;3.964;2023-02-11T06:47:49;36.70;;;19.27;;
18176;SDS011;9213;50.858;3.964;2023-02-11T06:50:16;36.63;;;17.33;;
18176;SDS011;9213;50.858;3.964;2023-02-11T06:52:43;40.83;;;18.80;;
18176;SDS011;9213;50.858;3.964;2023-02-11T06:55:10;38.17;;;18.70;;
18176;SDS011;9213;50.858;3.964;2023-02-11T06:57:37;42.27;;;18.40;;
18176;SDS011;9213;50.858;3.964;2023-02-11T07:00:06;43.47;;;19.33;;
18176;SDS011;9213;50.858;3.964;2023-02-11T07:02:34;40.43;;;19.23;;
18176;SDS011;9213;50.858;3.964;2023-02-11T07:05:01;36.07;;;18.07;;
18176;SDS011;9213;50.858;3.964;2023-02-11T07:07:29;50.83;;;20.33;;
18176;SDS011;9213;50.858;3.964;2023-02-11T07:09:57;58.43;;;26.70;;
18176;SDS011;9213;50.858;3.964;2023-02-11T07:12:23;49.43;;;24.00;;
18176;SDS011;9213;50.858;3.964;2023-02-11T07:14:50;42.37;;;22.53;;
18176;SDS011;9213;50.858;3.964;2023-02-11T07:17:19;43.57;;;22.67;;
18176;SDS011;9213;50.858;3.964;2023-02-11T07:19:46;49.53;;;23.20;;
18176;SDS011;9213;50.858;3.964;2023-02-11T07:22:13;44.77;;;22.03;;
18176;SDS011;9213;50.858;3.964;2023-02-11T07:24:40;42.10;;;21.30;;
18176;SDS011;9213;50.858;3.964;2023-02-11T07:27:07;49.27;;;22.57;;
18176;SDS011;9213;50.858;3.964;2023-02-11T07:29:34;43.43;;;21.83;;
18176;SDS011;9213;50.858;3.964;2023-02-11T07:32:01;47.67;;;22.20;;
18176;SDS011;9213;50.858;3.964;2023-02-11T07:34:29;48.73;;;23.33;;
18176;SDS011;9213;50.858;3.964;2023-02-11T07:36:57;48.60;;;24.07;;
18176;SDS011;9213;50.858;3.964;2023-02-11T07:39:24;48.30;;;24.80;;
18176;SDS011;9213;50.858;3.964;2023-02-11T07:41:51;44.53;;;22.97;;
18176;SDS011;9213;50.858;3.964;2023-02-11T07:44:18;48.87;;;22.10;;
18176;SDS011;9213;50.858;3.964;2023-02-11T07:46:45;48.80;;;24.33;;
18176;SDS011;9213;50.858;3.964;2023-02-11T07:49:13;52.10;;;23.43;;
18176;SDS011;9213;50.858;3.964;2023-02-11T07:51:41;43.47;;;21.83;;
18176;SDS011;9213;50.858;3.964;2023-02-11T07:54:09;58.70;;;23.40;;
18176;SDS011;9213;50.858;3.964;2023-02-11T07:56:36;113.77;;;48.53;;
18176;SDS011;9213;50.858;3.964;2023-02-11T07:59:03;62.10;;;27.70;;
18176;SDS011;9213;50.858;3.964;2023-02-11T08:01:30;66.07;;;27.90;;
18176;SDS011;9213;50.858;3.964;2023-02-11T08:03:58;75.10;;;28.50;;
18176;SDS011;9213;50.858;3.964;2023-02-11T08:06:27;62.13;;;26.47;;
18176;SDS011;9213;50.858;3.964;2023-02-11T08:08:57;55.97;;;26.53;;
18176;SDS011;9213;50.858;3.964;2023-02-11T08:11:28;62.27;;;28.40;;
18176;SDS011;9213;50.858;3.964;2023-02-11T08:13:55;63.40;;;26.97;;
18176;SDS011;9213;50.858;3.964;2023-02-11T08:16:23;61.50;;;25.77;;
18176;SDS011;9213;50.858;3.964;2023-02-11T08:18:51;65.70;;;26.30;;
18176;SDS011;9213;50.858;3.964;2023-02-11T08:21:19;55.03;;;25.50;;
18176;SDS011;9213;50.858;3.964;2023-02-11T08:23:46;69.07;;;25.87;;
18176;SDS011;9213;50.858;3.964;2023-02-11T08:26:16;58.00;;;24.17;;
18176;SDS011;9213;50.858;3.964;2023-02-11T08:28:45;60.40;;;24.63;;
18176;SDS011;9213;50.858;3.964;2023-02-11T08:31:14;60.77;;;25.53;;
18176;SDS011;9213;50.858;3.964;2023-02-11T08:33:42;72.30;;;28.67;;
18176;SDS011;9213;50.858;3.964;2023-02-11T08:36:10;67.43;;;28.33;;
18176;SDS011;9213;50.858;3.964;2023-02-11T08:38:38;65.43;;;28.07;;
18176;SDS011;9213;50.858;3.964;2023-02-11T08:41:05;60.50;;;28.63;;
18176;SDS011;9213;50.858;3.964;2023-02-11T08:43:34;68.80;;;28.47;;
18176;SDS011;9213;50.858;3.964;2023-02-11T08:46:05;65.77;;;27.63;;
18176;SDS011;9213;50.858;3.964;2023-02-11T08:48:33;71.10;;;28.83;;
18176;SDS011;9213;50.858;3.964;2023-02-11T08:51:04;65.13;;;27.10;;
18176;SDS011;9213;50.858;3.964;2023-02-11T08:53:31;69.80;;;28.37;;
18176;SDS011;9213;50.858;3.964;2023-02-11T08:55:58;65.57;;;27.33;;
18176;SDS011;9213;50.858;3.964;2023-02-11T08:58:25;73.37;;;28.43;;
18176;SDS011;9213;50.858;3.964;2023-02-11T09:00:54;66.70;;;28.83;;
18176;SDS011;9213;50.858;3.964;2023-02-11T09:03:21;80.07;;;31.63;;
18176;SDS011;9213;50.858;3.964;2023-02-11T09:05:48;72.57;;;29.10;;
18176;SDS011;9213;50.858;3.964;2023-02-11T09:08:17;65.33;;;26.93;;
18176;SDS011;9213;50.858;3.964;2023-02-11T09:10:45;68.03;;;27.83;;
18176;SDS011;9213;50.858;3.964;2023-02-11T09:13:11;63.23;;;27.37;;
18176;SDS011;9213;50.858;3.964;2023-02-11T09:15:38;61.87;;;25.17;;
18176;SDS011;9213;50.858;3.964;2023-02-11T09:18:07;69.90;;;26.33;;
18176;SDS011;9213;50.858;3.964;2023-02-11T09:20:34;63.07;;;27.30;;
18176;SDS011;9213;50.858;3.964;2023-02-11T09:23:00;65.83;;;26.90;;
18176;SDS011;9213;50.858;3.964;2023-02-11T09:25:27;62.07;;;27.83;;
18176;SDS011;9213;50.858;3.964;2023-02-11T09:27:54;61.70;;;28.80;;
18176;SDS011;9213;50.858;3.964;2023-02-11T09:30:21;63.00;;;26.93;;
18176;SDS011;9213;50.858;3.964;2023-02-11T09:32:48;55.83;;;26.63;;
18176;SDS011;9213;50.858;3.964;2023-02-11T09:35:16;65.27;;;29.17;;
18176;SDS011;9213;50.858;3.964;2023-02-11T09:37:43;64.70;;;27.87;;
18176;SDS011;9213;50.858;3.964;2023-02-11T09:40:10;67.93;;;31.00;;
18176;SDS011;9213;50.858;3.964;2023-02-11T09:42:42;61.17;;;26.70;;
18176;SDS011;9213;50.858;3.964;2023-02-11T09:45:16;62.23;;;25.40;;
18176;SDS011;9213;50.858;3.964;2023-02-11T09:47:46;53.50;;;25.20;;
18176;SDS011;9213;50.858;3.964;2023-02-11T09:50:20;55.37;;;25.90;;
18176;SDS011;9213;50.858;3.964;2023-02-11T09:52:51;54.53;;;25.47;;
18176;SDS011;9213;50.858;3.964;2023-02-11T09:55:23;57.53;;;25.70;;
18176;SDS011;9213;50.858;3.964;2023-02-11T09:57:54;67.37;;;26.87;;
18176;SDS011;9213;50.858;3.964;2023-02-11T10:00:23;58.37;;;28.87;;
18176;SDS011;9213;50.858;3.964;2023-02-11T10:02:56;68.27;;;35.97;;
18176;SDS011;9213;50.858;3.964;2023-02-11T10:05:52;67.00;;;29.43;;
18176;SDS011;9213;50.858;3.964;2023-02-11T10:08:46;53.97;;;26.73;;
18176;SDS011;9213;50.858;3.964;2023-02-11T10:11:23;63.00;;;26.77;;
18176;SDS011;9213;50.858;3.964;2023-02-11T10:13:58;58.43;;;27.33;;
18176;SDS011;9213;50.858;3.964;2023-02-11T10:16:35;70.17;;;33.87;;
18176;SDS011;9213;50.858;3.964;2023-02-11T10:19:18;62.87;;;27.53;;
18176;SDS011;9213;50.858;3.964;2023-02-11T10:21:58;53.07;;;26.90;;
18176;SDS011;9213;50.858;3.964;2023-02-11T10:24:34;59.50;;;28.83;;
18176;SDS011;9213;50.858;3.964;2023-02-11T10:27:03;55.80;;;26.93;;
18176;SDS011;9213;50.858;3.964;2023-02-11T10:29:40;51.87;;;26.70;;
18176;SDS011;9213;50.858;3.964;2023-02-11T10:32:13;54.20;;;27.10;;
18176;SDS011;9213;50.858;3.964;2023-02-11T10:34:50;61.03;;;26.23;;
18176;SDS011;9213;50.858;3.964;2023-02-11T10:37:22;51.03;;;25.43;;
18176;SDS011;9213;50.858;3.964;2023-02-11T10:39:49;54.93;;;26.50;;
18176;SDS011;9213;50.858;3.964;2023-02-11T10:42:16;55.53;;;28.10;;
18176;SDS011;9213;50.858;3.964;2023-02-11T10:44:52;49.40;;;24.77;;
18176;SDS011;9213;50.858;3.964;2023-02-11T10:47:23;66.13;;;26.00;;
18176;SDS011;9213;50.858;3.964;2023-02-11T10:49:53;56.17;;;26.47;;
18176;SDS011;9213;50.858;3.964;2023-02-11T10:52:28;58.00;;;24.97;;
18176;SDS011;9213;50.858;3.964;2023-02-11T10:54:56;54.93;;;26.07;;
18176;SDS011;9213;50.858;3.964;2023-02-11T10:57:25;59.57;;;27.90;;
18176;SDS011;9213;50.858;3.964;2023-02-11T10:59:56;67.50;;;32.90;;
18176;SDS011;9213;50.858;3.964;2023-02-11T11:02:28;72.30;;;35.43;;
18176;SDS011;9213;50.858;3.964;2023-02-11T11:04:58;74.00;;;36.90;;
18176;SDS011;9213;50.858;3.964;2023-02-11T11:07:29;63.03;;;32.47;;
18176;SDS011;9213;50.858;3.964;2023-02-11T11:09:59;65.77;;;32.17;;
18176;SDS011;9213;50.858;3.964;2023-02-11T11:12:29;57.97;;;30.30;;
18176;SDS011;9213;50.858;3.964;2023-02-11T11:15:00;53.17;;;28.20;;
18176;SDS011;9213;50.858;3.964;2023-02-11T11:17:29;60.60;;;26.90;;
18176;SDS011;9213;50.858;3.964;2023-02-11T11:22:45;63.00;;;28.23;;
18176;SDS011;9213;50.858;3.964;2023-02-11T11:25:20;62.80;;;30.30;;
18176;SDS011;9213;50.858;3.964;2023-02-11T11:27:53;64.67;;;29.43;;
18176;SDS011;9213;50.858;3.964;2023-02-11T11:30:22;60.30;;;33.57;;
18176;SDS011;9213;50.858;3.964;2023-02-11T11:32:52;54.47;;;29.43;;
18176;SDS011;9213;50.858;3.964;2023-02-11T11:35:23;56.10;;;30.10;;
18176;SDS011;9213;50.858;3.964;2023-02-11T11:37:53;53.13;;;27.73;;
18176;SDS011;9213;50.858;3.964;2023-02-11T11:40:23;52.63;;;29.50;;
18176;SDS011;9213;50.858;3.964;2023-02-11T11:43:02;55.77;;;30.80;;
18176;SDS011;9213;50.858;3.964;2023-02-11T11:45:30;60.50;;;31.17;;
18176;SDS011;9213;50.858;3.964;2023-02-11T11:47:58;49.40;;;28.00;;
18176;SDS011;9213;50.858;3.964;2023-02-11T11:50:29;52.40;;;29.90;;
18176;SDS011;9213;50.858;3.964;2023-02-11T11:53:02;53.27;;;30.47;;
18176;SDS011;9213;50.858;3.964;2023-02-11T11:55:34;58.63;;;31.10;;
18176;SDS011;9213;50.858;3.964;2023-02-11T11:58:08;47.20;;;29.07;;
18176;SDS011;9213;50.858;3.964;2023-02-11T12:00:41;55.13;;;30.00;;
18176;SDS011;9213;50.858;3.964;2023-02-11T12:03:26;51.70;;;29.77;;
18176;SDS011;9213;50.858;3.964;2023-02-11T12:06:18;60.17;;;31.53;;
18176;SDS011;9213;50.858;3.964;2023-02-11T12:08:57;59.13;;;31.37;;
18176;SDS011;9213;50.858;3.964;2023-02-11T12:11:33;55.13;;;32.43;;
18176;SDS011;9213;50.858;3.964;2023-02-11T12:14:23;54.47;;;32.07;;
18176;SDS011;9213;50.858;3.964;2023-02-11T12:16:58;52.17;;;29.47;;
18176;SDS011;9213;50.858;3.964;2023-02-11T12:19:37;56.23;;;29.23;;
18176;SDS011;9213;50.858;3.964;2023-02-11T12:22:25;49.37;;;29.93;;
18176;SDS011;9213;50.858;3.964;2023-02-11T12:25:18;47.00;;;28.77;;
18176;SDS011;9213;50.858;3.964;2023-02-11T12:27:53;44.67;;;28.13;;
18176;SDS011;9213;50.858;3.964;2023-02-11T12:30:43;42.60;;;28.83;;
18176;SDS011;9213;50.858;3.964;2023-02-11T12:33:21;45.27;;;28.47;;
18176;SDS011;9213;50.858;3.964;2023-02-11T12:36:01;43.53;;;28.20;;
18176;SDS011;9213;50.858;3.964;2023-02-11T12:38:47;42.33;;;28.87;;
18176;SDS011;9213;50.858;3.964;2023-02-11T12:41:33;45.67;;;28.93;;
18176;SDS011;9213;50.858;3.964;2023-02-11T12:44:27;48.67;;;28.70;;
18176;SDS011;9213;50.858;3.964;2023-02-11T12:47:07;43.77;;;28.10;;
18176;SDS011;9213;50.858;3.964;2023-02-11T12:49:48;45.83;;;27.47;;
18176;SDS011;9213;50.858;3.964;2023-02-11T12:52:27;48.07;;;29.63;;
18176;SDS011;9213;50.858;3.964;2023-02-11T12:55:10;52.40;;;28.97;;
18176;SDS011;9213;50.858;3.964;2023-02-11T12:57:46;51.07;;;28.10;;
18176;SDS011;9213;50.858;3.964;2023-02-11T13:00:17;51.33;;;28.43;;
18176;SDS011;9213;50.858;3.964;2023-02-11T13:02:48;50.83;;;29.87;;
18176;SDS011;9213;50.858;3.964;2023-02-11T13:05:24;49.80;;;28.60;;
18176;SDS011;9213;50.858;3.964;2023-02-11T13:07:54;47.43;;;28.77;;
18176;SDS011;9213;50.858;3.964;2023-02-11T13:10:27;49.53;;;27.30;;
18176;SDS011;9213;50.858;3.964;2023-02-11T13:12:59;52.47;;;29.17;;
18176;SDS011;9213;50.858;3.964;2023-02-11T13:15:42;54.03;;;29.87;;
18176;SDS011;9213;50.858;3.964;2023-02-11T13:18:28;57.47;;;32.73;;
18176;SDS011;9213;50.858;3.964;2023-02-11T13:21:15;89.30;;;49.50;;
18176;SDS011;9213;50.858;3.964;2023-02-11T13:23:52;56.60;;;37.20;;
18176;SDS011;9213;50.858;3.964;2023-02-11T13:26:28;49.33;;;30.30;;
18176;SDS011;9213;50.858;3.964;2023-02-11T13:29:08;50.77;;;32.70;;
18176;SDS011;9213;50.858;3.964;2023-02-11T13:31:43;45.67;;;30.77;;
18176;SDS011;9213;50.858;3.964;2023-02-11T13:34:25;45.80;;;30.83;;
18176;SDS011;9213;50.858;3.964;2023-02-11T13:37:18;43.07;;;29.40;;
18176;SDS011;9213;50.858;3.964;2023-02-11T13:39:54;48.77;;;31.60;;
18176;SDS011;9213;50.858;3.964;2023-02-11T13:42:22;49.50;;;33.80;;
18176;SDS011;9213;50.858;3.964;2023-02-11T13:44:51;50.40;;;32.50;;
18176;SDS011;9213;50.858;3.964;2023-02-11T13:47:24;46.83;;;31.10;;
18176;SDS011;9213;50.858;3.964;2023-02-11T13:49:53;47.37;;;30.70;;
18176;SDS011;9213;50.858;3.964;2023-02-11T13:52:22;47.00;;;31.07;;
18176;SDS011;9213;50.858;3.964;2023-02-11T13:54:52;48.00;;;31.30;;
18176;SDS011;9213;50.858;3.964;2023-02-11T13:57:25;50.37;;;31.73;;
18176;SDS011;9213;50.858;3.964;2023-02-11T14:03:21;51.40;;;31.67;;
18176;SDS011;9213;50.858;3.964;2023-02-11T14:06:15;51.67;;;31.57;;
18176;SDS011;9213;50.858;3.964;2023-02-11T14:09:09;51.10;;;32.40;;
18176;SDS011;9213;50.858;3.964;2023-02-11T14:14:57;51.53;;;33.30;;
18176;SDS011;9213;50.858;3.964;2023-02-11T14:17:26;52.63;;;33.70;;
18176;SDS011;9213;50.858;3.964;2023-02-11T14:19:57;51.77;;;33.07;;
18176;SDS011;9213;50.858;3.964;2023-02-11T14:22:26;52.53;;;33.83;;
18176;SDS011;9213;50.858;3.964;2023-02-11T14:24:58;51.63;;;33.97;;
18176;SDS011;9213;50.858;3.964;2023-02-11T14:27:27;49.93;;;32.33;;
18176;SDS011;9213;50.858;3.964;2023-02-11T14:30:07;51.50;;;33.03;;
18176;SDS011;9213;50.858;3.964;2023-02-11T14:32:57;61.10;;;36.10;;
18176;SDS011;9213;50.858;3.964;2023-02-11T14:35:40;52.93;;;33.13;;
18176;SDS011;9213;50.858;3.964;2023-02-11T14:38:18;52.20;;;33.93;;
18176;SDS011;9213;50.858;3.964;2023-02-11T14:40:53;55.67;;;33.20;;
18176;SDS011;9213;50.858;3.964;2023-02-11T14:43:27;51.97;;;32.27;;
18176;SDS011;9213;50.858;3.964;2023-02-11T14:45:59;53.83;;;34.43;;
18176;SDS011;9213;50.858;3.964;2023-02-11T14:48:28;54.60;;;32.73;;
18176;SDS011;9213;50.858;3.964;2023-02-11T14:50:59;55.70;;;33.10;;
18176;SDS011;9213;50.858;3.964;2023-02-11T14:53:31;54.23;;;33.27;;
18176;SDS011;9213;50.858;3.964;2023-02-11T14:56:01;49.13;;;31.77;;
18176;SDS011;9213;50.858;3.964;2023-02-11T14:58:28;54.37;;;34.10;;
18176;SDS011;9213;50.858;3.964;2023-02-11T15:00:57;53.63;;;33.40;;
18176;SDS011;9213;50.858;3.964;2023-02-11T15:03:26;51.27;;;32.73;;
18176;SDS011;9213;50.858;3.964;2023-02-11T15:05:58;50.57;;;31.43;;
18176;SDS011;9213;50.858;3.964;2023-02-11T15:08:26;55.90;;;35.23;;
18176;SDS011;9213;50.858;3.964;2023-02-11T15:10:55;85.90;;;54.23;;